createdAt,value
2019-03-11T00:00:18.166Z,5.87
2019-03-11T00:02:46.345Z,5.82
2019-03-11T00:05:14.774Z,5.91
2019-03-11T00:07:43.258Z,5.94
2019-03-11T00:10:11.449Z,6.00
2019-03-11T00:12:39.608Z,6.12
2019-03-11T00:15:09.040Z,6.12
2019-03-11T00:17:37.206Z,6.24
2019-03-11T00:20:08.426Z,6.20
2019-03-11T00:22:36.589Z,6.13
2019-03-11T00:25:06.806Z,5.73
2019-03-11T00:27:35.146Z,5.53
2019-03-11T00:30:05.294Z,5.54
2019-03-11T00:32:34.942Z,5.61
2019-03-11T00:35:05.405Z,5.71
2019-03-11T00:37:33.663Z,5.63
2019-03-11T00:40:01.921Z,5.67
2019-03-11T00:42:30.167Z,5.43
2019-03-11T00:44:58.378Z,5.37
2019-03-11T00:47:31.247Z,5.25
2019-03-11T00:50:01.184Z,5.31
2019-03-11T00:52:31.080Z,5.37
2019-03-11T00:54:56.651Z,5.36
2019-03-11T00:57:25.272Z,5.27
2019-03-11T01:00:06.916Z,5.24
2019-03-11T01:05:49.657Z,5.16
2019-03-11T01:07:59.289Z,4.79
2019-03-11T01:10:27.080Z,4.82
2019-03-11T01:13:00.764Z,4.93
2019-03-11T01:15:30.545Z,4.71
2019-03-11T01:18:00.318Z,4.83
2019-03-11T01:20:32.198Z,5.03
2019-03-11T01:26:06.075Z,4.95
2019-03-11T01:31:41.733Z,4.89
2019-03-11T01:37:02.318Z,4.83
2019-03-11T01:47:21.733Z,4.52
2019-03-11T01:49:49.922Z,4.66
2019-03-11T01:52:18.446Z,4.76
2019-03-11T01:54:46.631Z,4.81
2019-03-11T01:57:15.095Z,4.71
2019-03-11T01:59:43.321Z,4.76
2019-03-11T02:02:11.573Z,4.82
2019-03-11T02:04:39.772Z,4.99
2019-03-11T02:07:07.942Z,4.95
2019-03-11T02:09:36.131Z,5.05
2019-03-11T02:12:04.477Z,5.03
2019-03-11T02:14:32.662Z,4.95
2019-03-11T02:17:01.191Z,5.00
2019-03-11T02:19:29.381Z,5.14
2019-03-11T02:21:57.566Z,5.34
2019-03-11T02:24:25.766Z,5.44
2019-03-11T02:26:54.294Z,5.34
2019-03-11T02:29:22.471Z,5.39
2019-03-11T02:31:50.950Z,5.53
2019-03-11T02:34:19.134Z,5.32
2019-03-11T02:36:47.350Z,5.49
2019-03-11T02:39:15.599Z,5.61
2019-03-11T02:41:43.759Z,5.51
2019-03-11T02:44:11.950Z,5.65
2019-03-11T02:46:40.125Z,5.58
2019-03-11T02:49:08.310Z,5.80
2019-03-11T02:51:36.853Z,5.77
2019-03-11T02:54:05.026Z,5.67
2019-03-11T02:56:33.189Z,5.64
2019-03-11T02:59:01.374Z,5.45
2019-03-11T03:01:31.195Z,5.53
2019-03-11T03:04:01.027Z,5.60
2019-03-11T03:06:29.221Z,5.63
2019-03-11T03:08:57.404Z,5.57
2019-03-11T03:11:25.579Z,5.65
2019-03-11T03:13:54.082Z,5.64
2019-03-11T03:16:22.306Z,5.56
2019-03-11T03:18:50.745Z,5.62
2019-03-11T03:21:18.907Z,5.68
2019-03-11T03:23:47.108Z,5.55
2019-03-11T03:26:15.304Z,5.73
2019-03-11T03:28:43.489Z,5.74
2019-03-11T03:31:11.668Z,5.71
2019-03-11T03:33:39.946Z,5.62
2019-03-11T03:36:08.254Z,5.72
2019-03-11T03:38:36.438Z,5.70
2019-03-11T03:41:04.929Z,5.55
2019-03-11T03:43:33.174Z,5.43
2019-03-11T03:46:01.326Z,5.54
2019-03-11T03:48:29.894Z,5.64
2019-03-11T03:50:58.097Z,5.61
2019-03-11T03:53:26.260Z,5.67
2019-03-11T03:55:54.759Z,5.75
2019-03-11T03:58:22.927Z,5.85
2019-03-11T04:00:51.090Z,5.73
2019-03-11T04:03:19.306Z,5.74
2019-03-11T04:05:47.470Z,5.72
2019-03-11T04:08:15.650Z,5.61
2019-03-11T04:10:43.839Z,5.78
2019-03-11T04:13:12.019Z,5.66
2019-03-11T04:15:40.203Z,5.58
2019-03-11T04:18:09.939Z,5.48
2019-03-11T04:20:38.100Z,5.59
2019-03-11T04:23:06.299Z,5.64
2019-03-11T04:25:34.897Z,5.58
2019-03-11T04:28:04.082Z,5.54
2019-03-11T04:30:32.338Z,5.59
2019-03-11T04:33:00.841Z,5.61
2019-03-11T04:35:29.011Z,5.66
2019-03-11T04:37:57.706Z,5.59
2019-03-11T04:40:25.873Z,5.62
2019-03-11T04:42:54.034Z,5.53
2019-03-11T04:45:22.227Z,5.53
2019-03-11T04:47:50.392Z,5.46
2019-03-11T04:50:19.732Z,5.56
2019-03-11T04:52:47.882Z,5.55
2019-03-11T04:55:16.805Z,5.62
2019-03-11T04:57:52.547Z,5.61
2019-03-11T05:00:31.164Z,5.47
2019-03-11T05:02:59.507Z,5.19
2019-03-11T05:05:27.677Z,4.41
2019-03-11T05:07:55.869Z,4.14
2019-03-11T05:10:24.079Z,4.13
2019-03-11T05:12:52.273Z,4.01
2019-03-11T05:15:20.440Z,4.03
2019-03-11T05:17:48.978Z,4.12
2019-03-11T05:20:18.013Z,4.24
2019-03-11T05:22:46.197Z,4.23
2019-03-11T05:25:15.122Z,4.29
2019-03-11T05:27:43.682Z,4.20
2019-03-11T05:30:19.877Z,4.08
2019-03-11T05:32:48.213Z,4.08
2019-03-11T05:35:16.715Z,4.09
2019-03-11T05:37:44.987Z,4.01
2019-03-11T05:40:17.121Z,4.29
2019-03-11T05:42:45.314Z,4.27
2019-03-11T05:45:15.607Z,4.35
2019-03-11T05:47:43.873Z,4.40
2019-03-11T05:50:14.758Z,4.46
2019-03-11T05:52:43.549Z,4.56
2019-03-11T05:55:12.801Z,4.48
2019-03-11T05:57:41.141Z,4.40
2019-03-11T06:00:12.620Z,4.40
2019-03-11T06:02:40.778Z,4.42
2019-03-11T06:05:09.100Z,4.41
2019-03-11T06:07:37.257Z,4.45
2019-03-11T06:10:08.585Z,4.51
2019-03-11T06:12:36.797Z,4.47
2019-03-11T06:15:08.157Z,4.37
2019-03-11T06:17:36.353Z,4.47
2019-03-11T06:20:11.301Z,4.37
2019-03-11T06:22:39.480Z,4.33
2019-03-11T06:25:07.652Z,4.37
2019-03-11T06:27:36.203Z,4.29
2019-03-11T06:30:08.194Z,4.28
2019-03-11T06:32:37.051Z,4.51
2019-03-11T06:35:05.707Z,4.58
2019-03-11T06:37:33.879Z,4.70
2019-03-11T06:40:02.388Z,4.72
2019-03-11T06:42:30.583Z,4.67
2019-03-11T06:44:58.758Z,4.68
2019-03-11T06:47:26.952Z,4.64
2019-03-11T06:49:55.151Z,4.91
2019-03-11T06:52:23.344Z,4.95
2019-03-11T06:54:51.515Z,5.16
2019-03-11T06:57:19.724Z,5.15
2019-03-11T06:59:47.885Z,5.09
2019-03-11T07:02:16.457Z,5.20
2019-03-11T07:04:44.627Z,5.30
2019-03-11T07:07:12.819Z,5.24
2019-03-11T07:09:40.991Z,5.28
2019-03-11T07:12:09.194Z,5.41
2019-03-11T07:14:37.389Z,4.98
2019-03-11T07:17:05.892Z,4.72
2019-03-11T07:19:34.077Z,4.32
2019-03-11T07:22:02.278Z,4.08
2019-03-11T07:24:30.439Z,4.09
2019-03-11T07:26:58.633Z,4.19
2019-03-11T07:29:26.803Z,4.21
2019-03-11T07:31:55.238Z,4.17
2019-03-11T07:34:23.408Z,4.24
2019-03-11T07:36:51.994Z,4.27
2019-03-11T07:39:20.472Z,4.28
2019-03-11T07:41:48.658Z,4.33
2019-03-11T07:44:16.841Z,4.29
2019-03-11T07:46:45.689Z,4.26
2019-03-11T07:49:14.397Z,4.24
2019-03-11T07:51:42.588Z,4.44
2019-03-11T07:54:10.749Z,4.65
2019-03-11T07:56:38.940Z,4.88
2019-03-11T07:59:07.106Z,5.41
2019-03-11T08:01:35.287Z,5.83
2019-03-11T08:04:03.457Z,5.80
2019-03-11T08:06:31.621Z,5.56
2019-03-11T08:09:00.652Z,5.39
2019-03-11T08:11:28.819Z,5.20
2019-03-11T08:13:57.011Z,4.98
2019-03-11T08:16:25.164Z,4.91
2019-03-11T08:18:53.364Z,4.71
2019-03-11T08:21:21.550Z,4.52
2019-03-11T08:23:49.733Z,4.69
2019-03-11T08:26:18.219Z,4.83
2019-03-11T08:28:46.394Z,4.74
2019-03-11T08:31:14.586Z,4.83
2019-03-11T08:33:42.756Z,4.70
2019-03-11T08:36:10.956Z,4.78
2019-03-11T08:38:39.126Z,4.74
2019-03-11T08:41:07.315Z,4.74
2019-03-11T08:43:35.499Z,4.88
2019-03-11T08:46:03.699Z,5.07
2019-03-11T08:48:32.386Z,5.19
2019-03-11T08:51:00.557Z,5.10
2019-03-11T08:53:28.758Z,5.09
2019-03-11T08:55:56.942Z,4.99
2019-03-11T08:58:25.106Z,5.19
2019-03-11T09:00:53.293Z,5.28
2019-03-11T09:03:21.939Z,5.54
2019-03-11T09:05:50.109Z,5.78
2019-03-11T09:08:18.305Z,6.24
2019-03-11T09:10:46.874Z,6.44
2019-03-11T09:13:15.055Z,6.20
2019-03-11T09:15:45.509Z,6.09
2019-03-11T09:18:13.444Z,6.28
2019-03-11T09:20:44.078Z,6.45
2019-03-11T09:23:12.266Z,6.25
2019-03-11T09:25:40.446Z,6.17
2019-03-11T09:28:08.646Z,6.28
2019-03-11T09:30:38.625Z,6.50
2019-03-11T09:33:08.386Z,6.42
2019-03-11T09:35:36.842Z,6.80
2019-03-11T09:38:06.569Z,7.45
2019-03-11T09:40:35.078Z,8.37
2019-03-11T09:43:03.561Z,8.32
2019-03-11T09:45:32.038Z,8.73
2019-03-11T09:48:00.213Z,8.77
2019-03-11T09:50:28.423Z,8.20
2019-03-11T09:52:56.590Z,8.26
2019-03-11T09:55:27.079Z,8.04
2019-03-11T09:57:55.286Z,7.54
2019-03-11T10:00:24.294Z,6.88
2019-03-11T10:02:53.493Z,6.98
2019-03-11T10:05:22.032Z,7.18
2019-03-11T10:07:50.400Z,6.92
2019-03-11T10:10:20.018Z,6.66
2019-03-11T10:12:48.204Z,6.69
2019-03-11T10:15:18.106Z,6.93
2019-03-11T10:17:46.678Z,6.88
2019-03-11T10:20:19.045Z,6.79
2019-03-11T10:22:47.575Z,7.05
2019-03-11T10:25:17.031Z,7.21
2019-03-11T10:27:45.333Z,7.22
2019-03-11T10:30:21.092Z,7.39
2019-03-11T10:32:49.325Z,7.47
2019-03-11T10:35:31.352Z,7.95
2019-03-11T10:37:50.042Z,8.05
2019-03-11T10:40:20.808Z,8.06
2019-03-11T10:42:49.004Z,8.06
2019-03-11T10:45:17.508Z,7.48
2019-03-11T10:47:45.765Z,7.36
2019-03-11T10:50:18.559Z,7.47
2019-03-11T10:52:46.838Z,7.69
2019-03-11T10:55:16.363Z,8.34
2019-03-11T10:57:44.660Z,8.19
2019-03-11T11:00:26.046Z,7.57
2019-03-11T11:02:54.573Z,7.18
2019-03-11T11:05:22.737Z,7.24
2019-03-11T11:07:50.998Z,7.22
2019-03-11T11:10:19.524Z,6.94
2019-03-11T11:12:47.882Z,6.93
2019-03-11T11:15:20.778Z,6.80
2019-03-11T11:17:48.962Z,7.06
2019-03-11T11:20:19.065Z,7.34
2019-03-11T11:22:47.514Z,8.54
2019-03-11T11:25:20.426Z,8.03
2019-03-11T11:27:48.793Z,7.47
2019-03-11T11:30:24.420Z,7.47
2019-03-11T11:32:52.949Z,7.69
2019-03-11T11:35:21.384Z,7.60
2019-03-11T11:37:49.644Z,7.52
2019-03-11T11:40:24.835Z,7.91
2019-03-11T11:42:53.076Z,8.03
2019-03-11T11:45:30.075Z,8.08
2019-03-11T11:47:58.269Z,8.08
2019-03-11T11:50:26.694Z,7.68
2019-03-11T11:52:55.163Z,7.50
2019-03-11T11:55:23.866Z,6.76
2019-03-11T11:57:52.125Z,6.64
2019-03-11T12:00:34.921Z,7.31
2019-03-11T12:03:03.111Z,7.15
2019-03-11T12:05:31.378Z,7.47
2019-03-11T12:07:59.912Z,7.15
2019-03-11T12:10:33.387Z,7.05
2019-03-11T12:13:01.581Z,7.43
2019-03-11T12:15:29.818Z,7.89
2019-03-11T12:17:58.015Z,8.19
2019-03-11T12:20:30.208Z,8.84
2019-03-11T12:22:58.397Z,9.29
2019-03-11T12:25:26.639Z,9.97
2019-03-11T12:27:54.996Z,9.08
2019-03-11T12:30:28.048Z,8.30
2019-03-11T12:32:56.356Z,7.34
2019-03-11T12:35:24.613Z,6.95
2019-03-11T12:37:54.805Z,7.02
2019-03-11T12:40:23.567Z,7.11
2019-03-11T12:42:52.075Z,7.15
2019-03-11T12:45:22.834Z,7.86
2019-03-11T12:47:51.165Z,8.08
2019-03-11T12:50:22.439Z,7.95
2019-03-11T12:52:50.703Z,7.76
2019-03-11T12:55:21.180Z,7.62
2019-03-11T12:57:48.787Z,7.45
2019-03-11T13:00:19.501Z,7.66
2019-03-11T13:02:48.158Z,7.87
2019-03-11T13:05:17.455Z,8.34
2019-03-11T13:07:45.697Z,8.54
2019-03-11T13:10:20.254Z,8.89
2019-03-11T13:12:48.937Z,8.97
2019-03-11T13:15:17.445Z,8.84
2019-03-11T13:17:46.008Z,8.73
2019-03-11T13:20:37.804Z,8.38
2019-03-11T13:23:05.994Z,8.02
2019-03-11T13:25:34.188Z,7.96
2019-03-11T13:28:02.365Z,8.31
2019-03-11T13:30:30.545Z,8.45
2019-03-11T13:32:58.717Z,8.32
2019-03-11T13:35:26.897Z,8.17
2019-03-11T13:37:55.553Z,8.41
2019-03-11T13:40:23.729Z,8.88
2019-03-11T13:42:51.900Z,9.41
2019-03-11T13:45:20.481Z,9.67
2019-03-11T13:47:48.842Z,10.22
2019-03-11T13:50:18.843Z,10.25
2019-03-11T13:52:47.272Z,9.43
2019-03-11T13:55:16.682Z,9.13
2019-03-11T13:57:44.872Z,9.18
2019-03-11T14:00:18.257Z,9.08
2019-03-11T14:02:46.707Z,9.14
2019-03-11T14:05:14.912Z,8.71
2019-03-11T14:07:43.388Z,8.43
2019-03-11T14:10:12.474Z,8.82
2019-03-11T14:12:40.670Z,9.58
2019-03-11T14:15:22.678Z,11.08
2019-03-11T14:17:50.857Z,11.41
2019-03-11T14:20:19.098Z,11.22
2019-03-11T14:22:47.291Z,11.26
2019-03-11T14:25:15.775Z,11.28
2019-03-11T14:27:44.014Z,10.88
2019-03-11T14:30:19.618Z,9.80
2019-03-11T14:32:47.840Z,9.66
2019-03-11T14:35:16.018Z,9.34
2019-03-11T14:37:44.207Z,9.31
2019-03-11T14:40:14.498Z,9.47
2019-03-11T14:42:42.975Z,9.89
2019-03-11T14:45:15.963Z,9.64
2019-03-11T14:47:44.137Z,9.52
2019-03-11T14:50:14.055Z,10.03
2019-03-11T14:52:42.233Z,9.92
2019-03-11T14:55:11.639Z,9.78
2019-03-11T14:57:39.813Z,9.66
2019-03-11T15:00:11.573Z,9.43
2019-03-11T15:02:39.738Z,9.50
2019-03-11T15:05:08.557Z,9.73
2019-03-11T15:07:37.014Z,9.49
2019-03-11T15:10:07.920Z,9.51
2019-03-11T15:12:36.086Z,9.47
2019-03-11T15:15:07.376Z,9.65
2019-03-11T15:17:35.805Z,9.74
2019-03-11T15:20:05.935Z,9.99
2019-03-11T15:22:34.112Z,10.20
2019-03-11T15:25:02.301Z,10.05
2019-03-11T15:27:30.463Z,9.96
2019-03-11T15:29:58.632Z,9.65
2019-03-11T15:32:27.418Z,9.43
2019-03-11T15:34:55.591Z,9.36
2019-03-11T15:37:23.764Z,9.53
2019-03-11T15:39:51.925Z,9.45
2019-03-11T15:42:20.414Z,9.64
2019-03-11T15:44:48.577Z,9.51
2019-03-11T15:47:16.754Z,9.62
2019-03-11T15:49:44.918Z,9.70
2019-03-11T15:52:13.101Z,9.82
2019-03-11T15:54:41.402Z,9.82
2019-03-11T15:57:09.713Z,9.91
2019-03-11T15:59:37.879Z,9.97
2019-03-11T16:02:06.767Z,9.92
2019-03-11T16:04:34.994Z,9.91
2019-03-11T16:07:03.177Z,9.54
2019-03-11T16:09:31.407Z,9.20
2019-03-11T16:11:59.935Z,9.05
2019-03-11T16:14:28.118Z,8.94
2019-03-11T16:16:56.547Z,9.02
2019-03-11T16:19:24.777Z,9.05
2019-03-11T16:21:53.049Z,9.31
2019-03-11T16:24:21.281Z,9.16
2019-03-11T16:26:49.473Z,9.14
2019-03-11T16:29:17.749Z,9.02
2019-03-11T16:31:45.911Z,8.72
2019-03-11T16:34:14.103Z,8.75
2019-03-11T16:36:42.286Z,8.71
2019-03-11T16:39:10.558Z,8.48
2019-03-11T16:41:38.746Z,8.46
2019-03-11T16:44:06.909Z,8.44
2019-03-11T16:46:35.073Z,8.34
2019-03-11T16:49:03.537Z,8.33
2019-03-11T16:51:32.251Z,8.30
2019-03-11T16:54:00.929Z,8.22
2019-03-11T16:56:29.398Z,8.15
2019-03-11T16:58:57.635Z,8.10
2019-03-11T17:01:25.903Z,8.13
2019-03-11T17:03:58.430Z,8.10
2019-03-11T17:06:24.095Z,8.02
2019-03-11T17:08:52.628Z,7.90
2019-03-11T17:11:21.205Z,7.89
2019-03-11T17:13:49.427Z,8.04
2019-03-11T17:16:42.147Z,7.99
2019-03-11T17:20:17.231Z,7.97
2019-03-11T17:22:05.581Z,7.98
2019-03-11T17:24:10.144Z,8.01
2019-03-11T17:26:41.929Z,7.90
2019-03-11T17:29:09.109Z,7.89
2019-03-11T17:31:37.274Z,7.87
2019-03-11T17:34:07.349Z,7.88
2019-03-11T17:36:35.550Z,7.85
2019-03-11T17:39:04.503Z,7.92
2019-03-11T17:41:32.756Z,7.85
2019-03-11T17:44:01.449Z,7.89
2019-03-11T17:46:29.707Z,7.95
2019-03-11T17:48:57.926Z,7.92
2019-03-11T17:51:26.147Z,7.91
2019-03-11T17:53:54.656Z,7.89
2019-03-11T17:56:22.869Z,7.93
2019-03-11T17:58:51.040Z,7.88
2019-03-11T18:01:19.234Z,7.96
2019-03-11T18:03:47.411Z,7.95
2019-03-11T18:06:15.619Z,7.91
2019-03-11T18:08:43.853Z,7.86
2019-03-11T18:11:12.038Z,7.81
2019-03-11T18:13:40.206Z,7.89
2019-03-11T18:16:08.396Z,7.87
2019-03-11T18:18:36.558Z,7.81
2019-03-11T18:21:06.781Z,7.74
2019-03-11T18:23:34.711Z,7.72
2019-03-11T18:26:02.883Z,7.80
2019-03-11T18:28:31.094Z,7.83
2019-03-11T18:30:59.368Z,7.77
2019-03-11T18:33:27.583Z,7.79
2019-03-11T18:35:55.724Z,7.82
2019-03-11T18:38:23.890Z,7.80
2019-03-11T18:40:54.279Z,7.73
2019-03-11T18:43:22.062Z,7.73
2019-03-11T18:45:50.308Z,7.75
2019-03-11T18:48:18.496Z,7.76
2019-03-11T18:50:46.683Z,7.75
2019-03-11T18:53:14.873Z,7.75
2019-03-11T18:55:43.035Z,7.80
2019-03-11T18:58:11.194Z,7.70
2019-03-11T19:00:39.755Z,7.83
2019-03-11T19:03:08.052Z,7.86
2019-03-11T19:05:36.234Z,7.83
2019-03-11T19:08:04.664Z,7.88
2019-03-11T19:10:32.848Z,7.81
2019-03-11T19:13:01.055Z,7.69
2019-03-11T19:15:29.338Z,7.71
2019-03-11T19:17:57.540Z,7.62
2019-03-11T19:20:26.428Z,7.67
2019-03-11T19:22:55.018Z,7.64
2019-03-11T19:25:23.845Z,7.55
2019-03-11T19:27:52.818Z,7.56
2019-03-11T19:30:26.219Z,7.55
2019-03-11T19:32:54.594Z,7.56
2019-03-11T19:35:24.567Z,7.51
2019-03-11T19:37:54.426Z,7.50
2019-03-11T19:40:25.176Z,7.60
2019-03-11T19:42:53.539Z,7.60
2019-03-11T19:45:21.908Z,7.49
2019-03-11T19:47:51.081Z,7.60
2019-03-11T19:50:20.259Z,7.61
2019-03-11T19:52:58.451Z,7.50
2019-03-11T19:55:18.895Z,7.44
2019-03-11T19:57:47.609Z,7.51
2019-03-11T20:00:23.564Z,7.53
2019-03-11T20:02:53.047Z,7.63
2019-03-11T20:05:28.921Z,7.49
2019-03-11T20:07:57.315Z,7.62
2019-03-11T20:10:25.876Z,7.58
2019-03-11T20:12:54.360Z,7.60
2019-03-11T20:15:22.900Z,7.47
2019-03-11T20:17:51.310Z,7.49
2019-03-11T20:20:20.599Z,7.43
2019-03-11T20:22:50.456Z,7.44
2019-03-11T20:25:21.789Z,7.44
2019-03-11T20:27:50.687Z,7.40
2019-03-11T20:30:21.306Z,7.32
2019-03-11T20:32:49.959Z,7.40
2019-03-11T20:35:18.284Z,7.43
2019-03-11T20:37:47.033Z,7.43
2019-03-11T20:40:15.584Z,7.40
2019-03-11T20:42:43.954Z,7.34
2019-03-11T20:45:18.412Z,7.25
2019-03-11T20:47:47.513Z,7.20
2019-03-11T20:50:17.029Z,7.27
2019-03-11T20:52:46.039Z,7.25
2019-03-11T20:55:16.091Z,7.36
2019-03-11T20:57:44.442Z,7.38
2019-03-11T21:00:15.295Z,7.35
2019-03-11T21:02:43.967Z,7.43
2019-03-11T21:05:14.816Z,7.37
2019-03-11T21:07:43.449Z,7.43
2019-03-11T21:10:14.415Z,7.41
2019-03-11T21:12:42.828Z,7.38
2019-03-11T21:15:13.693Z,7.37
2019-03-11T21:17:42.103Z,7.29
2019-03-11T21:20:18.091Z,7.14
2019-03-11T21:22:46.515Z,7.02
2019-03-11T21:25:16.715Z,6.92
2019-03-11T21:27:45.013Z,6.85
2019-03-11T21:30:19.080Z,6.85
2019-03-11T21:32:47.669Z,6.81
2019-03-11T21:35:16.257Z,6.71
2019-03-11T21:37:44.642Z,6.69
2019-03-11T21:40:23.387Z,6.63
2019-03-11T21:42:51.982Z,6.61
2019-03-11T21:45:33.042Z,6.58
2019-03-11T21:47:51.134Z,6.55
2019-03-11T21:50:21.509Z,6.50
2019-03-11T21:52:49.839Z,6.42
2019-03-11T21:55:18.018Z,6.43
2019-03-11T21:57:46.272Z,6.43
2019-03-11T22:00:28.487Z,6.35
2019-03-11T22:02:47.904Z,6.27
2019-03-11T22:05:16.093Z,6.28
2019-03-11T22:07:44.610Z,6.26
2019-03-11T22:10:17.305Z,6.21
2019-03-11T22:12:45.561Z,6.17
2019-03-11T22:15:21.146Z,6.19
2019-03-11T22:17:49.338Z,6.08
2019-03-11T22:20:17.871Z,6.05
2019-03-11T22:22:46.234Z,6.06
2019-03-11T22:25:16.640Z,6.13
2019-03-11T22:27:44.974Z,6.05
2019-03-11T22:30:21.040Z,6.00
2019-03-11T22:32:49.349Z,5.97
2019-03-11T22:35:17.530Z,5.99
2019-03-11T22:37:45.994Z,6.00
2019-03-11T22:40:15.990Z,5.98
2019-03-11T22:42:44.178Z,5.94
2019-03-11T22:45:16.847Z,5.93
2019-03-11T22:47:44.682Z,5.93
2019-03-11T22:50:13.394Z,5.93
2019-03-11T22:52:41.579Z,5.89
2019-03-11T22:55:11.153Z,5.91
2019-03-11T22:57:39.313Z,5.91
2019-03-11T23:00:29.312Z,5.91
2019-03-11T23:02:57.469Z,5.89
2019-03-11T23:05:25.649Z,5.95
2019-03-11T23:07:53.978Z,6.07
2019-03-11T23:10:22.175Z,6.12
2019-03-11T23:12:50.348Z,6.20
2019-03-11T23:15:18.536Z,6.19
2019-03-11T23:17:46.730Z,6.14
2019-03-11T23:20:14.969Z,6.23
2019-03-11T23:22:43.464Z,6.20
2019-03-11T23:25:11.643Z,6.18
2019-03-11T23:27:39.805Z,6.19
2019-03-11T23:30:14.038Z,6.22
2019-03-11T23:32:42.221Z,6.31
2019-03-11T23:35:10.726Z,6.25
2019-03-11T23:37:38.889Z,6.19
2019-03-11T23:40:09.021Z,6.07
2019-03-11T23:42:37.262Z,5.95
2019-03-11T23:45:07.405Z,5.99
2019-03-11T23:47:37.091Z,5.84
2019-03-11T23:50:10.202Z,5.81
2019-03-11T23:52:38.365Z,5.72
2019-03-11T23:55:08.397Z,5.60
2019-03-11T23:57:36.926Z,5.64
